sensor_id;sensor_type;location;lat;lon;timestamp;temperature;humidity
43920;DHT22;29578;51.946;5.874;2022-07-22T00:01:31;16.90;84.30
43920;DHT22;29578;51.946;5.874;2022-07-22T00:03:57;17.10;84.40
43920;DHT22;29578;51.946;5.874;2022-07-22T00:06:23;16.90;84.30
43920;DHT22;29578;51.946;5.874;2022-07-22T00:08:49;16.90;84.30
43920;DHT22;29578;51.946;5.874;2022-07-22T00:11:15;16.90;84.40
43920;DHT22;29578;51.946;5.874;2022-07-22T00:13:41;16.90;84.30
43920;DHT22;29578;51.946;5.874;2022-07-22T00:16:07;16.90;84.30
43920;DHT22;29578;51.946;5.874;2022-07-22T00:18:32;16.90;84.30
43920;DHT22;29578;51.946;5.874;2022-07-22T00:20:58;16.90;84.90
43920;DHT22;29578;51.946;5.874;2022-07-22T00:23:24;16.90;84.20
43920;DHT22;29578;51.946;5.874;2022-07-22T00:25:50;17.00;84.30
43920;DHT22;29578;51.946;5.874;2022-07-22T00:28:16;16.90;84.30
43920;DHT22;29578;51.946;5.874;2022-07-22T00:30:42;16.90;84.30
43920;DHT22;29578;51.946;5.874;2022-07-22T00:33:08;16.90;84.20
43920;DHT22;29578;51.946;5.874;2022-07-22T00:35:34;17.00;84.20
43920;DHT22;29578;51.946;5.874;2022-07-22T00:38:00;17.00;84.20
43920;DHT22;29578;51.946;5.874;2022-07-22T00:40:25;16.90;84.10
43920;DHT22;29578;51.946;5.874;2022-07-22T00:42:51;16.90;84.10
43920;DHT22;29578;51.946;5.874;2022-07-22T00:45:18;17.00;84.20
43920;DHT22;29578;51.946;5.874;2022-07-22T00:47:44;16.90;84.20
43920;DHT22;29578;51.946;5.874;2022-07-22T00:50:10;16.90;84.20
43920;DHT22;29578;51.946;5.874;2022-07-22T00:52:36;16.90;84.20
43920;DHT22;29578;51.946;5.874;2022-07-22T00:55:04;16.90;84.20
43920;DHT22;29578;51.946;5.874;2022-07-22T00:57:30;16.90;84.20
43920;DHT22;29578;51.946;5.874;2022-07-22T00:59:57;16.90;84.10
43920;DHT22;29578;51.946;5.874;2022-07-22T01:02:23;16.90;84.10
43920;DHT22;29578;51.946;5.874;2022-07-22T01:04:48;16.90;84.10
43920;DHT22;29578;51.946;5.874;2022-07-22T01:07:14;16.90;84.10
43920;DHT22;29578;51.946;5.874;2022-07-22T01:09:47;17.00;84.10
43920;DHT22;29578;51.946;5.874;2022-07-22T01:12:13;17.00;84.00
43920;DHT22;29578;51.946;5.874;2022-07-22T01:14:38;17.00;84.00
43920;DHT22;29578;51.946;5.874;2022-07-22T01:17:04;17.00;84.50
43920;DHT22;29578;51.946;5.874;2022-07-22T01:19:30;17.00;83.90
43920;DHT22;29578;51.946;5.874;2022-07-22T01:21:55;17.00;84.50
43920;DHT22;29578;51.946;5.874;2022-07-22T01:24:21;17.00;83.80
43920;DHT22;29578;51.946;5.874;2022-07-22T01:26:47;17.00;83.80
43920;DHT22;29578;51.946;5.874;2022-07-22T01:29:13;17.00;83.70
43920;DHT22;29578;51.946;5.874;2022-07-22T01:31:39;16.90;83.70
43920;DHT22;29578;51.946;5.874;2022-07-22T01:34:05;16.90;83.70
43920;DHT22;29578;51.946;5.874;2022-07-22T01:36:31;16.90;83.60
43920;DHT22;29578;51.946;5.874;2022-07-22T01:38:57;17.00;83.70
43920;DHT22;29578;51.946;5.874;2022-07-22T01:41:22;16.90;83.60
43920;DHT22;29578;51.946;5.874;2022-07-22T01:43:50;16.90;83.60
43920;DHT22;29578;51.946;5.874;2022-07-22T01:46:16;16.90;83.70
43920;DHT22;29578;51.946;5.874;2022-07-22T01:48:44;16.90;83.70
43920;DHT22;29578;51.946;5.874;2022-07-22T01:51:10;16.90;83.70
43920;DHT22;29578;51.946;5.874;2022-07-22T01:53:35;16.90;83.60
43920;DHT22;29578;51.946;5.874;2022-07-22T01:56:01;16.90;83.70
43920;DHT22;29578;51.946;5.874;2022-07-22T01:58:27;16.90;83.70
43920;DHT22;29578;51.946;5.874;2022-07-22T02:00:53;16.80;83.70
43920;DHT22;29578;51.946;5.874;2022-07-22T02:03:19;16.90;83.80
43920;DHT22;29578;51.946;5.874;2022-07-22T02:05:46;16.80;83.70
43920;DHT22;29578;51.946;5.874;2022-07-22T02:08:12;16.80;83.80
43920;DHT22;29578;51.946;5.874;2022-07-22T02:10:39;16.80;83.80
43920;DHT22;29578;51.946;5.874;2022-07-22T02:13:05;16.80;83.70
43920;DHT22;29578;51.946;5.874;2022-07-22T02:15:30;16.70;83.60
43920;DHT22;29578;51.946;5.874;2022-07-22T02:17:56;16.80;83.70
43920;DHT22;29578;51.946;5.874;2022-07-22T02:20:22;16.80;83.70
43920;DHT22;29578;51.946;5.874;2022-07-22T02:22:48;16.70;84.30
43920;DHT22;29578;51.946;5.874;2022-07-22T02:25:14;16.70;83.60
43920;DHT22;29578;51.946;5.874;2022-07-22T02:27:41;16.70;83.60
43920;DHT22;29578;51.946;5.874;2022-07-22T02:30:08;16.70;83.50
43920;DHT22;29578;51.946;5.874;2022-07-22T02:32:34;16.70;84.20
43920;DHT22;29578;51.946;5.874;2022-07-22T02:35:00;16.70;83.60
43920;DHT22;29578;51.946;5.874;2022-07-22T02:37:26;16.70;83.60
43920;DHT22;29578;51.946;5.874;2022-07-22T02:39:52;16.80;83.60
43920;DHT22;29578;51.946;5.874;2022-07-22T02:42:18;16.70;83.60
43920;DHT22;29578;51.946;5.874;2022-07-22T02:44:43;16.80;83.70
43920;DHT22;29578;51.946;5.874;2022-07-22T02:47:09;16.70;83.70
43920;DHT22;29578;51.946;5.874;2022-07-22T02:49:35;16.70;83.60
43920;DHT22;29578;51.946;5.874;2022-07-22T02:52:01;16.70;83.70
43920;DHT22;29578;51.946;5.874;2022-07-22T02:54:26;16.70;83.70
43920;DHT22;29578;51.946;5.874;2022-07-22T02:56:52;16.70;83.70
43920;DHT22;29578;51.946;5.874;2022-07-22T02:59:18;16.70;83.60
43920;DHT22;29578;51.946;5.874;2022-07-22T03:01:43;16.70;83.60
43920;DHT22;29578;51.946;5.874;2022-07-22T03:04:09;16.70;83.50
43920;DHT22;29578;51.946;5.874;2022-07-22T03:06:35;16.70;83.40
43920;DHT22;29578;51.946;5.874;2022-07-22T03:09:00;16.70;83.50
43920;DHT22;29578;51.946;5.874;2022-07-22T03:11:26;16.70;83.50
43920;DHT22;29578;51.946;5.874;2022-07-22T03:13:52;16.60;83.40
43920;DHT22;29578;51.946;5.874;2022-07-22T03:16:18;16.70;83.40
43920;DHT22;29578;51.946;5.874;2022-07-22T03:18:43;16.60;83.30
43920;DHT22;29578;51.946;5.874;2022-07-22T03:21:09;16.70;83.40
43920;DHT22;29578;51.946;5.874;2022-07-22T03:23:35;16.60;83.40
43920;DHT22;29578;51.946;5.874;2022-07-22T03:26:01;16.60;83.40
43920;DHT22;29578;51.946;5.874;2022-07-22T03:28:26;16.60;83.50
43920;DHT22;29578;51.946;5.874;2022-07-22T03:30:53;16.70;84.20
43920;DHT22;29578;51.946;5.874;2022-07-22T03:33:18;16.60;83.50
43920;DHT22;29578;51.946;5.874;2022-07-22T03:35:44;16.60;83.50
43920;DHT22;29578;51.946;5.874;2022-07-22T03:38:10;16.60;83.40
43920;DHT22;29578;51.946;5.874;2022-07-22T03:40:35;16.70;83.40
43920;DHT22;29578;51.946;5.874;2022-07-22T03:43:01;16.70;83.30
43920;DHT22;29578;51.946;5.874;2022-07-22T03:45:27;16.70;83.30
43920;DHT22;29578;51.946;5.874;2022-07-22T03:47:52;16.70;83.30
43920;DHT22;29578;51.946;5.874;2022-07-22T03:50:20;16.60;83.30
43920;DHT22;29578;51.946;5.874;2022-07-22T03:52:45;16.70;83.30
43920;DHT22;29578;51.946;5.874;2022-07-22T03:55:11;16.60;83.30
43920;DHT22;29578;51.946;5.874;2022-07-22T03:57:37;16.60;83.20
43920;DHT22;29578;51.946;5.874;2022-07-22T04:00:04;16.60;83.20
43920;DHT22;29578;51.946;5.874;2022-07-22T04:02:30;16.70;83.30
43920;DHT22;29578;51.946;5.874;2022-07-22T04:04:56;16.70;83.30
43920;DHT22;29578;51.946;5.874;2022-07-22T04:07:21;16.60;83.20
43920;DHT22;29578;51.946;5.874;2022-07-22T04:09:47;16.70;83.20
43920;DHT22;29578;51.946;5.874;2022-07-22T04:12:13;16.70;83.80
43920;DHT22;29578;51.946;5.874;2022-07-22T04:14:39;16.70;83.20
43920;DHT22;29578;51.946;5.874;2022-07-22T04:17:04;16.70;83.20
43920;DHT22;29578;51.946;5.874;2022-07-22T04:19:30;16.70;83.20
43920;DHT22;29578;51.946;5.874;2022-07-22T04:21:56;16.70;83.20
43920;DHT22;29578;51.946;5.874;2022-07-22T04:24:22;16.70;83.10
43920;DHT22;29578;51.946;5.874;2022-07-22T04:26:47;16.80;83.10
43920;DHT22;29578;51.946;5.874;2022-07-22T04:29:13;16.70;83.00
43920;DHT22;29578;51.946;5.874;2022-07-22T04:31:39;16.80;83.20
43920;DHT22;29578;51.946;5.874;2022-07-22T04:34:05;16.70;83.00
43920;DHT22;29578;51.946;5.874;2022-07-22T04:36:31;16.80;83.10
43920;DHT22;29578;51.946;5.874;2022-07-22T04:38:57;16.90;83.10
43920;DHT22;29578;51.946;5.874;2022-07-22T04:41:23;16.80;83.00
43920;DHT22;29578;51.946;5.874;2022-07-22T04:43:49;16.70;83.00
43920;DHT22;29578;51.946;5.874;2022-07-22T04:46:15;16.80;83.00
43920;DHT22;29578;51.946;5.874;2022-07-22T04:48:41;16.80;82.90
43920;DHT22;29578;51.946;5.874;2022-07-22T04:51:06;16.80;82.90
43920;DHT22;29578;51.946;5.874;2022-07-22T04:53:32;16.90;83.00
43920;DHT22;29578;51.946;5.874;2022-07-22T04:55:58;16.80;82.90
43920;DHT22;29578;51.946;5.874;2022-07-22T04:58:24;16.90;82.90
43920;DHT22;29578;51.946;5.874;2022-07-22T05:00:49;16.90;82.90
43920;DHT22;29578;51.946;5.874;2022-07-22T05:03:15;17.00;82.90
43920;DHT22;29578;51.946;5.874;2022-07-22T05:05:41;16.90;82.80
43920;DHT22;29578;51.946;5.874;2022-07-22T05:08:07;17.00;82.80
43920;DHT22;29578;51.946;5.874;2022-07-22T05:10:32;16.90;82.70
43920;DHT22;29578;51.946;5.874;2022-07-22T05:12:59;16.80;82.80
43920;DHT22;29578;51.946;5.874;2022-07-22T05:15:24;16.90;82.90
43920;DHT22;29578;51.946;5.874;2022-07-22T05:17:50;16.80;83.00
43920;DHT22;29578;51.946;5.874;2022-07-22T05:20:16;16.70;83.00
43920;DHT22;29578;51.946;5.874;2022-07-22T05:22:42;16.80;83.10
43920;DHT22;29578;51.946;5.874;2022-07-22T05:25:08;16.80;83.10
43920;DHT22;29578;51.946;5.874;2022-07-22T05:27:34;16.80;83.10
43920;DHT22;29578;51.946;5.874;2022-07-22T05:30:00;16.80;83.10
43920;DHT22;29578;51.946;5.874;2022-07-22T05:32:26;16.80;83.00
43920;DHT22;29578;51.946;5.874;2022-07-22T05:34:51;16.80;82.90
43920;DHT22;29578;51.946;5.874;2022-07-22T05:37:17;16.80;82.90
43920;DHT22;29578;51.946;5.874;2022-07-22T05:39:43;16.80;82.90
43920;DHT22;29578;51.946;5.874;2022-07-22T05:42:09;16.90;82.90
43920;DHT22;29578;51.946;5.874;2022-07-22T05:44:35;16.90;82.90
43920;DHT22;29578;51.946;5.874;2022-07-22T05:47:00;16.90;82.70
43920;DHT22;29578;51.946;5.874;2022-07-22T05:49:26;17.00;82.70
43920;DHT22;29578;51.946;5.874;2022-07-22T05:51:53;17.00;82.50
43920;DHT22;29578;51.946;5.874;2022-07-22T05:54:19;16.90;82.50
43920;DHT22;29578;51.946;5.874;2022-07-22T05:56:45;17.00;82.50
43920;DHT22;29578;51.946;5.874;2022-07-22T05:59:14;17.00;82.50
43920;DHT22;29578;51.946;5.874;2022-07-22T06:01:41;17.10;82.40
43920;DHT22;29578;51.946;5.874;2022-07-22T06:04:07;17.10;82.40
43920;DHT22;29578;51.946;5.874;2022-07-22T06:06:33;17.10;82.30
43920;DHT22;29578;51.946;5.874;2022-07-22T06:08:58;17.10;82.20
43920;DHT22;29578;51.946;5.874;2022-07-22T06:11:24;17.20;82.20
43920;DHT22;29578;51.946;5.874;2022-07-22T06:13:50;17.30;82.10
43920;DHT22;29578;51.946;5.874;2022-07-22T06:16:15;17.30;82.10
43920;DHT22;29578;51.946;5.874;2022-07-22T06:18:41;17.40;82.00
43920;DHT22;29578;51.946;5.874;2022-07-22T06:21:07;17.20;81.80
43920;DHT22;29578;51.946;5.874;2022-07-22T06:23:33;17.30;81.70
43920;DHT22;29578;51.946;5.874;2022-07-22T06:26:00;17.40;81.70
43920;DHT22;29578;51.946;5.874;2022-07-22T06:28:26;17.50;81.70
43920;DHT22;29578;51.946;5.874;2022-07-22T06:30:51;17.40;81.70
43920;DHT22;29578;51.946;5.874;2022-07-22T06:33:17;17.50;81.60
43920;DHT22;29578;51.946;5.874;2022-07-22T06:35:43;17.50;81.40
43920;DHT22;29578;51.946;5.874;2022-07-22T06:38:09;17.60;81.30
43920;DHT22;29578;51.946;5.874;2022-07-22T06:40:34;17.60;81.30
43920;DHT22;29578;51.946;5.874;2022-07-22T06:43:01;17.60;81.30
43920;DHT22;29578;51.946;5.874;2022-07-22T06:45:27;17.60;81.20
43920;DHT22;29578;51.946;5.874;2022-07-22T06:47:52;17.60;81.20
43920;DHT22;29578;51.946;5.874;2022-07-22T06:50:18;17.60;81.20
43920;DHT22;29578;51.946;5.874;2022-07-22T06:52:44;17.60;81.20
43920;DHT22;29578;51.946;5.874;2022-07-22T06:55:10;17.60;81.20
43920;DHT22;29578;51.946;5.874;2022-07-22T06:57:36;17.60;81.20
43920;DHT22;29578;51.946;5.874;2022-07-22T07:00:04;17.70;81.20
43920;DHT22;29578;51.946;5.874;2022-07-22T07:02:31;17.60;81.10
43920;DHT22;29578;51.946;5.874;2022-07-22T07:04:56;17.70;81.20
43920;DHT22;29578;51.946;5.874;2022-07-22T07:07:22;17.70;81.10
43920;DHT22;29578;51.946;5.874;2022-07-22T07:09:48;17.70;81.00
43920;DHT22;29578;51.946;5.874;2022-07-22T07:12:14;17.80;80.80
43920;DHT22;29578;51.946;5.874;2022-07-22T07:14:39;17.90;80.70
43920;DHT22;29578;51.946;5.874;2022-07-22T07:17:05;17.90;80.50
43920;DHT22;29578;51.946;5.874;2022-07-22T07:19:40;18.00;80.50
43920;DHT22;29578;51.946;5.874;2022-07-22T07:22:06;18.00;80.20
43920;DHT22;29578;51.946;5.874;2022-07-22T07:24:32;18.10;80.00
43920;DHT22;29578;51.946;5.874;2022-07-22T07:26:58;18.20;79.90
43920;DHT22;29578;51.946;5.874;2022-07-22T07:29:23;18.20;79.80
43920;DHT22;29578;51.946;5.874;2022-07-22T07:31:49;18.20;79.60
43920;DHT22;29578;51.946;5.874;2022-07-22T07:34:15;18.30;79.40
43920;DHT22;29578;51.946;5.874;2022-07-22T07:36:41;18.30;79.40
43920;DHT22;29578;51.946;5.874;2022-07-22T07:39:07;18.40;79.30
43920;DHT22;29578;51.946;5.874;2022-07-22T07:41:35;18.40;79.20
43920;DHT22;29578;51.946;5.874;2022-07-22T07:44:01;18.50;79.10
43920;DHT22;29578;51.946;5.874;2022-07-22T07:46:40;18.50;79.00
43920;DHT22;29578;51.946;5.874;2022-07-22T07:49:13;18.60;79.00
43920;DHT22;29578;51.946;5.874;2022-07-22T07:51:38;18.60;78.80
43920;DHT22;29578;51.946;5.874;2022-07-22T07:54:04;18.60;78.70
43920;DHT22;29578;51.946;5.874;2022-07-22T07:56:30;18.70;78.50
43920;DHT22;29578;51.946;5.874;2022-07-22T07:58:55;18.70;78.40
43920;DHT22;29578;51.946;5.874;2022-07-22T08:01:21;18.70;78.50
43920;DHT22;29578;51.946;5.874;2022-07-22T08:03:48;18.70;78.40
43920;DHT22;29578;51.946;5.874;2022-07-22T08:06:14;18.70;78.40
43920;DHT22;29578;51.946;5.874;2022-07-22T08:08:39;18.70;78.30
43920;DHT22;29578;51.946;5.874;2022-07-22T08:11:05;18.80;78.20
43920;DHT22;29578;51.946;5.874;2022-07-22T08:13:31;18.90;77.90
43920;DHT22;29578;51.946;5.874;2022-07-22T08:15:57;18.90;77.90
43920;DHT22;29578;51.946;5.874;2022-07-22T08:18:23;19.00;77.80
43920;DHT22;29578;51.946;5.874;2022-07-22T08:20:48;19.00;77.80
43920;DHT22;29578;51.946;5.874;2022-07-22T08:23:14;19.10;77.80
43920;DHT22;29578;51.946;5.874;2022-07-22T08:25:40;19.20;77.50
43920;DHT22;29578;51.946;5.874;2022-07-22T08:28:06;19.30;77.30
43920;DHT22;29578;51.946;5.874;2022-07-22T08:30:31;19.30;77.10
43920;DHT22;29578;51.946;5.874;2022-07-22T08:32:58;19.40;77.10
43920;DHT22;29578;51.946;5.874;2022-07-22T08:35:24;19.50;77.00
43920;DHT22;29578;51.946;5.874;2022-07-22T08:37:50;19.50;76.80
43920;DHT22;29578;51.946;5.874;2022-07-22T08:40:17;19.60;76.80
43920;DHT22;29578;51.946;5.874;2022-07-22T08:42:45;19.70;76.50
43920;DHT22;29578;51.946;5.874;2022-07-22T08:45:11;19.70;76.40
43920;DHT22;29578;51.946;5.874;2022-07-22T08:47:37;19.70;76.30
43920;DHT22;29578;51.946;5.874;2022-07-22T08:50:04;19.80;76.30
43920;DHT22;29578;51.946;5.874;2022-07-22T08:52:30;19.90;76.30
43920;DHT22;29578;51.946;5.874;2022-07-22T08:54:56;19.90;76.30
43920;DHT22;29578;51.946;5.874;2022-07-22T08:57:21;20.00;76.10
43920;DHT22;29578;51.946;5.874;2022-07-22T08:59:52;20.00;76.10
43920;DHT22;29578;51.946;5.874;2022-07-22T09:02:18;20.00;76.10
43920;DHT22;29578;51.946;5.874;2022-07-22T09:04:58;20.00;76.20
43920;DHT22;29578;51.946;5.874;2022-07-22T09:07:28;20.00;76.10
43920;DHT22;29578;51.946;5.874;2022-07-22T09:09:55;20.10;76.20
43920;DHT22;29578;51.946;5.874;2022-07-22T09:12:21;20.00;76.10
43920;DHT22;29578;51.946;5.874;2022-07-22T09:14:50;20.00;76.20
43920;DHT22;29578;51.946;5.874;2022-07-22T09:17:36;20.00;76.20
43920;DHT22;29578;51.946;5.874;2022-07-22T09:20:14;20.00;76.30
43920;DHT22;29578;51.946;5.874;2022-07-22T09:22:43;20.00;76.20
43920;DHT22;29578;51.946;5.874;2022-07-22T09:28:17;20.10;76.10
43920;DHT22;29578;51.946;5.874;2022-07-22T09:30:49;20.20;76.60
43920;DHT22;29578;51.946;5.874;2022-07-22T09:33:15;20.10;76.10
43920;DHT22;29578;51.946;5.874;2022-07-22T09:35:42;20.10;75.80
43920;DHT22;29578;51.946;5.874;2022-07-22T09:38:10;20.20;75.80
43920;DHT22;29578;51.946;5.874;2022-07-22T09:40:37;20.30;75.80
43920;DHT22;29578;51.946;5.874;2022-07-22T09:43:06;20.20;75.80
43920;DHT22;29578;51.946;5.874;2022-07-22T09:45:33;20.20;75.80
43920;DHT22;29578;51.946;5.874;2022-07-22T09:48:00;20.20;75.90
43920;DHT22;29578;51.946;5.874;2022-07-22T09:50:30;20.20;75.80
43920;DHT22;29578;51.946;5.874;2022-07-22T09:52:58;20.40;76.00
43920;DHT22;29578;51.946;5.874;2022-07-22T09:55:26;20.30;75.90
43920;DHT22;29578;51.946;5.874;2022-07-22T09:57:53;20.40;75.70
43920;DHT22;29578;51.946;5.874;2022-07-22T10:00:23;20.40;75.50
43920;DHT22;29578;51.946;5.874;2022-07-22T10:02:52;20.50;75.40
43920;DHT22;29578;51.946;5.874;2022-07-22T10:05:20;20.40;75.40
43920;DHT22;29578;51.946;5.874;2022-07-22T10:07:47;20.40;75.40
43920;DHT22;29578;51.946;5.874;2022-07-22T10:10:16;20.50;75.20
43920;DHT22;29578;51.946;5.874;2022-07-22T10:12:43;20.50;75.10
43920;DHT22;29578;51.946;5.874;2022-07-22T10:15:10;20.60;74.90
43920;DHT22;29578;51.946;5.874;2022-07-22T10:17:38;20.60;74.70
43920;DHT22;29578;51.946;5.874;2022-07-22T10:20:06;20.70;74.60
43920;DHT22;29578;51.946;5.874;2022-07-22T10:22:49;20.80;74.40
43920;DHT22;29578;51.946;5.874;2022-07-22T10:25:15;20.80;74.30
43920;DHT22;29578;51.946;5.874;2022-07-22T10:27:50;20.80;74.20
43920;DHT22;29578;51.946;5.874;2022-07-22T10:30:20;20.90;74.00
43920;DHT22;29578;51.946;5.874;2022-07-22T10:33:08;20.90;73.80
43920;DHT22;29578;51.946;5.874;2022-07-22T10:35:37;20.90;73.80
43920;DHT22;29578;51.946;5.874;2022-07-22T10:38:06;20.90;73.70
43920;DHT22;29578;51.946;5.874;2022-07-22T10:43:13;21.00;73.70
43920;DHT22;29578;51.946;5.874;2022-07-22T10:45:45;21.00;73.50
43920;DHT22;29578;51.946;5.874;2022-07-22T10:48:16;21.00;73.20
43920;DHT22;29578;51.946;5.874;2022-07-22T10:50:45;21.20;73.10
43920;DHT22;29578;51.946;5.874;2022-07-22T10:53:23;21.20;73.00
43920;DHT22;29578;51.946;5.874;2022-07-22T10:58:46;21.40;72.60
43920;DHT22;29578;51.946;5.874;2022-07-22T11:01:14;21.50;72.50
43920;DHT22;29578;51.946;5.874;2022-07-22T11:03:42;21.60;72.30
43920;DHT22;29578;51.946;5.874;2022-07-22T11:06:20;21.60;72.20
43920;DHT22;29578;51.946;5.874;2022-07-22T11:08:49;21.60;72.00
43920;DHT22;29578;51.946;5.874;2022-07-22T11:11:16;21.70;71.70
43920;DHT22;29578;51.946;5.874;2022-07-22T11:13:43;21.80;71.60
43920;DHT22;29578;51.946;5.874;2022-07-22T11:16:21;21.80;71.60
43920;DHT22;29578;51.946;5.874;2022-07-22T11:21:30;21.60;71.90
43920;DHT22;29578;51.946;5.874;2022-07-22T11:23:58;21.60;72.70
43920;DHT22;29578;51.946;5.874;2022-07-22T11:26:32;21.60;72.20
43920;DHT22;29578;51.946;5.874;2022-07-22T11:28:59;21.50;72.30
43920;DHT22;29578;51.946;5.874;2022-07-22T11:31:25;21.60;72.30
43920;DHT22;29578;51.946;5.874;2022-07-22T11:33:51;21.60;72.00
43920;DHT22;29578;51.946;5.874;2022-07-22T11:36:17;21.80;71.80
43920;DHT22;29578;51.946;5.874;2022-07-22T11:38:45;21.90;71.40
43920;DHT22;29578;51.946;5.874;2022-07-22T11:41:11;22.00;71.20
43920;DHT22;29578;51.946;5.874;2022-07-22T11:43:42;22.00;71.00
43920;DHT22;29578;51.946;5.874;2022-07-22T11:46:08;22.00;70.90
43920;DHT22;29578;51.946;5.874;2022-07-22T11:48:33;22.00;70.50
43920;DHT22;29578;51.946;5.874;2022-07-22T11:51:01;22.00;70.40
43920;DHT22;29578;51.946;5.874;2022-07-22T11:53:27;22.00;70.40
43920;DHT22;29578;51.946;5.874;2022-07-22T11:55:58;21.90;70.60
43920;DHT22;29578;51.946;5.874;2022-07-22T11:58:38;21.90;70.90
43920;DHT22;29578;51.946;5.874;2022-07-22T12:01:06;21.90;70.90
43920;DHT22;29578;51.946;5.874;2022-07-22T12:03:34;22.10;70.40
43920;DHT22;29578;51.946;5.874;2022-07-22T12:06:02;22.10;70.10
43920;DHT22;29578;51.946;5.874;2022-07-22T12:08:29;22.10;70.10
43920;DHT22;29578;51.946;5.874;2022-07-22T12:10:57;22.10;70.10
43920;DHT22;29578;51.946;5.874;2022-07-22T12:13:29;22.20;69.80
43920;DHT22;29578;51.946;5.874;2022-07-22T12:15:55;22.30;69.60
43920;DHT22;29578;51.946;5.874;2022-07-22T12:18:23;22.30;69.50
43920;DHT22;29578;51.946;5.874;2022-07-22T12:20:50;22.30;69.60
43920;DHT22;29578;51.946;5.874;2022-07-22T12:23:16;22.30;69.40
43920;DHT22;29578;51.946;5.874;2022-07-22T12:25:52;22.50;69.20
43920;DHT22;29578;51.946;5.874;2022-07-22T12:28:17;22.60;68.90
43920;DHT22;29578;51.946;5.874;2022-07-22T12:30:43;22.70;68.70
43920;DHT22;29578;51.946;5.874;2022-07-22T12:33:13;22.70;68.60
43920;DHT22;29578;51.946;5.874;2022-07-22T12:35:39;22.70;68.70
43920;DHT22;29578;51.946;5.874;2022-07-22T12:38:07;22.70;68.80
43920;DHT22;29578;51.946;5.874;2022-07-22T12:40:34;22.70;68.70
43920;DHT22;29578;51.946;5.874;2022-07-22T12:43:01;22.70;68.70
43920;DHT22;29578;51.946;5.874;2022-07-22T12:45:28;22.60;68.70
43920;DHT22;29578;51.946;5.874;2022-07-22T12:47:56;22.60;68.80
43920;DHT22;29578;51.946;5.874;2022-07-22T12:50:31;22.50;68.80
43920;DHT22;29578;51.946;5.874;2022-07-22T12:53:03;22.50;68.90
43920;DHT22;29578;51.946;5.874;2022-07-22T12:55:30;22.40;68.80
43920;DHT22;29578;51.946;5.874;2022-07-22T12:57:56;22.50;68.90
43920;DHT22;29578;51.946;5.874;2022-07-22T13:00:28;22.40;69.00
43920;DHT22;29578;51.946;5.874;2022-07-22T13:02:54;22.40;69.00
43920;DHT22;29578;51.946;5.874;2022-07-22T13:05:21;22.50;68.80
43920;DHT22;29578;51.946;5.874;2022-07-22T13:07:48;22.50;68.50
43920;DHT22;29578;51.946;5.874;2022-07-22T13:10:14;22.50;68.20
43920;DHT22;29578;51.946;5.874;2022-07-22T13:12:41;22.60;68.10
43920;DHT22;29578;51.946;5.874;2022-07-22T13:15:07;22.50;68.00
43920;DHT22;29578;51.946;5.874;2022-07-22T13:17:34;22.60;68.10
43920;DHT22;29578;51.946;5.874;2022-07-22T13:20:00;22.70;67.90
43920;DHT22;29578;51.946;5.874;2022-07-22T13:22:26;22.70;67.60
43920;DHT22;29578;51.946;5.874;2022-07-22T13:24:52;22.80;67.30
43920;DHT22;29578;51.946;5.874;2022-07-22T13:27:17;22.90;67.20
43920;DHT22;29578;51.946;5.874;2022-07-22T13:29:43;22.80;67.20
43920;DHT22;29578;51.946;5.874;2022-07-22T13:32:09;22.70;67.40
43920;DHT22;29578;51.946;5.874;2022-07-22T13:34:34;22.70;67.50
43920;DHT22;29578;51.946;5.874;2022-07-22T13:37:01;22.80;67.50
43920;DHT22;29578;51.946;5.874;2022-07-22T13:39:27;22.90;67.30
43920;DHT22;29578;51.946;5.874;2022-07-22T13:41:52;22.90;67.10
43920;DHT22;29578;51.946;5.874;2022-07-22T13:44:18;22.80;67.10
43920;DHT22;29578;51.946;5.874;2022-07-22T13:46:44;22.80;67.20
43920;DHT22;29578;51.946;5.874;2022-07-22T13:49:12;22.70;67.20
43920;DHT22;29578;51.946;5.874;2022-07-22T13:51:38;22.80;67.10
43920;DHT22;29578;51.946;5.874;2022-07-22T13:54:03;22.80;67.10
43920;DHT22;29578;51.946;5.874;2022-07-22T13:56:31;22.80;67.00
43920;DHT22;29578;51.946;5.874;2022-07-22T13:58:58;22.80;66.90
43920;DHT22;29578;51.946;5.874;2022-07-22T14:01:24;22.80;66.80
43920;DHT22;29578;51.946;5.874;2022-07-22T14:03:50;22.70;66.90
43920;DHT22;29578;51.946;5.874;2022-07-22T14:06:16;22.60;66.80
43920;DHT22;29578;51.946;5.874;2022-07-22T14:08:42;22.60;66.90
43920;DHT22;29578;51.946;5.874;2022-07-22T14:11:07;22.60;67.10
43920;DHT22;29578;51.946;5.874;2022-07-22T14:13:33;22.60;66.90
43920;DHT22;29578;51.946;5.874;2022-07-22T14:15:59;22.60;66.70
43920;DHT22;29578;51.946;5.874;2022-07-22T14:18:44;22.70;66.70
43920;DHT22;29578;51.946;5.874;2022-07-22T14:21:10;22.70;66.70
43920;DHT22;29578;51.946;5.874;2022-07-22T14:23:36;22.70;66.60
43920;DHT22;29578;51.946;5.874;2022-07-22T14:26:01;22.70;66.50
43920;DHT22;29578;51.946;5.874;2022-07-22T14:28:27;22.90;66.40
43920;DHT22;29578;51.946;5.874;2022-07-22T14:30:53;22.90;66.10
43920;DHT22;29578;51.946;5.874;2022-07-22T14:33:18;22.90;65.80
43920;DHT22;29578;51.946;5.874;2022-07-22T14:35:44;22.90;65.70
43920;DHT22;29578;51.946;5.874;2022-07-22T14:38:10;23.00;65.80
43920;DHT22;29578;51.946;5.874;2022-07-22T14:40:35;22.90;65.70
43920;DHT22;29578;51.946;5.874;2022-07-22T14:43:01;23.00;65.60
43920;DHT22;29578;51.946;5.874;2022-07-22T14:45:27;22.90;65.70
43920;DHT22;29578;51.946;5.874;2022-07-22T14:47:52;22.80;65.70
43920;DHT22;29578;51.946;5.874;2022-07-22T14:50:18;22.80;65.80
43920;DHT22;29578;51.946;5.874;2022-07-22T14:52:44;22.80;66.00
43920;DHT22;29578;51.946;5.874;2022-07-22T14:55:10;22.80;65.90
43920;DHT22;29578;51.946;5.874;2022-07-22T14:57:35;22.80;65.80
43920;DHT22;29578;51.946;5.874;2022-07-22T15:00:01;22.80;65.80
43920;DHT22;29578;51.946;5.874;2022-07-22T15:02:27;22.80;65.90
43920;DHT22;29578;51.946;5.874;2022-07-22T15:04:52;22.90;65.90
43920;DHT22;29578;51.946;5.874;2022-07-22T15:07:18;22.90;65.90
43920;DHT22;29578;51.946;5.874;2022-07-22T15:09:44;22.90;65.70
43920;DHT22;29578;51.946;5.874;2022-07-22T15:12:09;22.90;65.70
43920;DHT22;29578;51.946;5.874;2022-07-22T15:14:35;23.00;65.50
43920;DHT22;29578;51.946;5.874;2022-07-22T15:17:01;23.10;65.40
43920;DHT22;29578;51.946;5.874;2022-07-22T15:19:26;23.20;65.10
43920;DHT22;29578;51.946;5.874;2022-07-22T15:21:52;23.20;64.90
43920;DHT22;29578;51.946;5.874;2022-07-22T15:24:18;23.10;64.70
43920;DHT22;29578;51.946;5.874;2022-07-22T15:26:43;23.10;64.90
43920;DHT22;29578;51.946;5.874;2022-07-22T15:29:09;23.10;65.00
43920;DHT22;29578;51.946;5.874;2022-07-22T15:31:35;23.10;65.00
43920;DHT22;29578;51.946;5.874;2022-07-22T15:34:01;23.10;65.00
43920;DHT22;29578;51.946;5.874;2022-07-22T15:36:27;23.00;64.90
43920;DHT22;29578;51.946;5.874;2022-07-22T15:38:54;22.90;65.00